Arpan, South Dakota
Current Conditions -  °F | °C
As of 7:35 PM on Monday 22 Dec 2014 (Local Time) from KSPF Reporting Station
Light Rain Light Rain  
Wind Chill: 14°   Ceiling: 1500
Heat Index: 28°   Visibility: 10mi
Dew Point: 25°   Wind: 26mph
Humidity: 86%   Direction: 310°NW
Pressure: 29.76"   Gusts: 38mph
Location:  44.6391°N, 103.522°W
Report Text: KSPF 230235Z AUTO 31023G33KT 10SM -RA BKN015 BKN021 M02/M04 A2976 RMK AO2
Loading
Personal Weather Stations






























Interactive Weather Map New forecast layout! Learn more

10-Day Weather Forecast

Advertisements
Track Severe Weather on mobile